sensor_id;sensor_type;location;lat;lon;timestamp;P1;durP1;ratioP1;P2;durP2;ratioP2
1320;SDS011;653;51.480;11.992;2022-09-09T00:00:40;3.10;;;2.33;;
1320;SDS011;653;51.480;11.992;2022-09-09T00:03:18;7.97;;;1.70;;
1320;SDS011;653;51.480;11.992;2022-09-09T00:06:08;2.30;;;1.33;;
1320;SDS011;653;51.480;11.992;2022-09-09T00:11:42;1.67;;;1.50;;
1320;SDS011;653;51.480;11.992;2022-09-09T00:14:11;3.70;;;1.50;;
1320;SDS011;653;51.480;11.992;2022-09-09T00:16:43;2.83;;;1.90;;
1320;SDS011;653;51.480;11.992;2022-09-09T00:19:39;3.90;;;2.30;;
1320;SDS011;653;51.480;11.992;2022-09-09T00:24:42;2.50;;;1.67;;
1320;SDS011;653;51.480;11.992;2022-09-09T00:32:39;4.77;;;1.90;;
1320;SDS011;653;51.480;11.992;2022-09-09T00:37:56;2.60;;;1.83;;
1320;SDS011;653;51.480;11.992;2022-09-09T00:40:31;4.23;;;2.10;;
1320;SDS011;653;51.480;11.992;2022-09-09T00:43:19;3.03;;;1.33;;
1320;SDS011;653;51.480;11.992;2022-09-09T00:46:00;3.50;;;1.40;;
1320;SDS011;653;51.480;11.992;2022-09-09T00:48:35;5.40;;;1.80;;
1320;SDS011;653;51.480;11.992;2022-09-09T00:51:15;2.23;;;1.47;;
1320;SDS011;653;51.480;11.992;2022-09-09T00:54:01;2.50;;;1.90;;
1320;SDS011;653;51.480;11.992;2022-09-09T00:57:03;2.30;;;1.57;;
1320;SDS011;653;51.480;11.992;2022-09-09T00:59:52;3.60;;;1.50;;
1320;SDS011;653;51.480;11.992;2022-09-09T01:02:31;1.90;;;1.30;;
1320;SDS011;653;51.480;11.992;2022-09-09T01:05:16;2.77;;;1.70;;
1320;SDS011;653;51.480;11.992;2022-09-09T01:07:47;2.83;;;1.70;;
1320;SDS011;653;51.480;11.992;2022-09-09T01:10:17;5.87;;;1.70;;
1320;SDS011;653;51.480;11.992;2022-09-09T01:12:51;7.30;;;1.87;;
1320;SDS011;653;51.480;11.992;2022-09-09T01:15:19;3.77;;;2.43;;
1320;SDS011;653;51.480;11.992;2022-09-09T01:18:04;2.67;;;1.63;;
1320;SDS011;653;51.480;11.992;2022-09-09T01:28:54;3.30;;;2.10;;
1320;SDS011;653;51.480;11.992;2022-09-09T01:31:21;3.37;;;2.20;;
1320;SDS011;653;51.480;11.992;2022-09-09T01:33:50;2.23;;;1.77;;
1320;SDS011;653;51.480;11.992;2022-09-09T01:39:01;2.20;;;1.43;;
1320;SDS011;653;51.480;11.992;2022-09-09T01:41:26;6.20;;;1.97;;
1320;SDS011;653;51.480;11.992;2022-09-09T01:43:53;4.50;;;1.70;;
1320;SDS011;653;51.480;11.992;2022-09-09T01:46:18;2.80;;;1.63;;
1320;SDS011;653;51.480;11.992;2022-09-09T01:48:47;2.27;;;1.63;;
1320;SDS011;653;51.480;11.992;2022-09-09T01:51:13;2.07;;;1.63;;
1320;SDS011;653;51.480;11.992;2022-09-09T01:53:39;3.40;;;2.00;;
1320;SDS011;653;51.480;11.992;2022-09-09T01:56:19;2.50;;;2.00;;
1320;SDS011;653;51.480;11.992;2022-09-09T02:01:17;3.40;;;1.53;;
1320;SDS011;653;51.480;11.992;2022-09-09T02:03:47;2.20;;;1.90;;
1320;SDS011;653;51.480;11.992;2022-09-09T02:09:11;2.60;;;1.47;;
1320;SDS011;653;51.480;11.992;2022-09-09T02:11:40;4.47;;;2.00;;
1320;SDS011;653;51.480;11.992;2022-09-09T02:14:13;3.67;;;1.87;;
1320;SDS011;653;51.480;11.992;2022-09-09T02:16:54;5.33;;;1.70;;
1320;SDS011;653;51.480;11.992;2022-09-09T02:19:46;3.83;;;1.80;;
1320;SDS011;653;51.480;11.992;2022-09-09T02:22:16;6.07;;;2.20;;
1320;SDS011;653;51.480;11.992;2022-09-09T02:24:44;6.10;;;2.30;;
1320;SDS011;653;51.480;11.992;2022-09-09T02:27:11;3.90;;;2.53;;
1320;SDS011;653;51.480;11.992;2022-09-09T02:29:41;3.10;;;1.93;;
1320;SDS011;653;51.480;11.992;2022-09-09T02:32:09;4.13;;;2.00;;
1320;SDS011;653;51.480;11.992;2022-09-09T02:34:41;5.30;;;1.90;;
1320;SDS011;653;51.480;11.992;2022-09-09T02:37:09;4.90;;;2.17;;
1320;SDS011;653;51.480;11.992;2022-09-09T02:39:37;4.50;;;2.10;;
1320;SDS011;653;51.480;11.992;2022-09-09T02:42:04;3.90;;;2.20;;
1320;SDS011;653;51.480;11.992;2022-09-09T02:44:31;3.67;;;2.73;;
1320;SDS011;653;51.480;11.992;2022-09-09T02:47:41;5.70;;;2.50;;
1320;SDS011;653;51.480;11.992;2022-09-09T02:58:05;4.30;;;2.40;;
1320;SDS011;653;51.480;11.992;2022-09-09T03:00:34;3.60;;;2.63;;
1320;SDS011;653;51.480;11.992;2022-09-09T03:03:03;3.53;;;2.17;;
1320;SDS011;653;51.480;11.992;2022-09-09T03:05:30;5.63;;;2.87;;
1320;SDS011;653;51.480;11.992;2022-09-09T03:07:56;3.20;;;2.40;;
1320;SDS011;653;51.480;11.992;2022-09-09T03:10:22;3.73;;;2.30;;
1320;SDS011;653;51.480;11.992;2022-09-09T03:12:49;7.63;;;2.67;;
1320;SDS011;653;51.480;11.992;2022-09-09T03:15:17;3.83;;;2.40;;
1320;SDS011;653;51.480;11.992;2022-09-09T03:17:42;3.00;;;2.43;;
1320;SDS011;653;51.480;11.992;2022-09-09T03:20:09;4.00;;;2.60;;
1320;SDS011;653;51.480;11.992;2022-09-09T03:22:36;2.70;;;2.40;;
1320;SDS011;653;51.480;11.992;2022-09-09T03:25:04;5.43;;;3.60;;
1320;SDS011;653;51.480;11.992;2022-09-09T03:27:31;7.40;;;2.90;;
1320;SDS011;653;51.480;11.992;2022-09-09T03:29:57;5.13;;;3.33;;
1320;SDS011;653;51.480;11.992;2022-09-09T03:32:25;7.90;;;3.10;;
1320;SDS011;653;51.480;11.992;2022-09-09T03:34:52;4.30;;;3.30;;
1320;SDS011;653;51.480;11.992;2022-09-09T03:37:18;3.87;;;3.47;;
1320;SDS011;653;51.480;11.992;2022-09-09T03:39:46;6.60;;;4.50;;
1320;SDS011;653;51.480;11.992;2022-09-09T03:42:13;8.37;;;4.57;;
1320;SDS011;653;51.480;11.992;2022-09-09T03:44:40;7.93;;;5.37;;
1320;SDS011;653;51.480;11.992;2022-09-09T03:47:08;5.77;;;5.17;;
1320;SDS011;653;51.480;11.992;2022-09-09T03:49:33;6.00;;;4.20;;
1320;SDS011;653;51.480;11.992;2022-09-09T03:51:59;9.97;;;4.60;;
1320;SDS011;653;51.480;11.992;2022-09-09T03:54:25;5.53;;;4.40;;
1320;SDS011;653;51.480;11.992;2022-09-09T03:56:51;5.67;;;4.83;;
1320;SDS011;653;51.480;11.992;2022-09-09T03:59:18;5.10;;;3.50;;
1320;SDS011;653;51.480;11.992;2022-09-09T04:01:45;6.00;;;3.43;;
1320;SDS011;653;51.480;11.992;2022-09-09T04:04:13;6.50;;;3.97;;
1320;SDS011;653;51.480;11.992;2022-09-09T04:06:39;4.23;;;3.57;;
1320;SDS011;653;51.480;11.992;2022-09-09T04:09:04;9.07;;;4.43;;
1320;SDS011;653;51.480;11.992;2022-09-09T04:11:31;6.37;;;3.10;;
1320;SDS011;653;51.480;11.992;2022-09-09T04:13:57;5.23;;;3.97;;
1320;SDS011;653;51.480;11.992;2022-09-09T04:16:24;5.43;;;3.47;;
1320;SDS011;653;51.480;11.992;2022-09-09T04:18:51;3.80;;;3.40;;
1320;SDS011;653;51.480;11.992;2022-09-09T04:21:18;7.83;;;3.60;;
1320;SDS011;653;51.480;11.992;2022-09-09T04:23:44;5.13;;;3.90;;
1320;SDS011;653;51.480;11.992;2022-09-09T04:26:11;8.00;;;3.87;;
1320;SDS011;653;51.480;11.992;2022-09-09T04:28:37;4.33;;;3.80;;
1320;SDS011;653;51.480;11.992;2022-09-09T04:31:10;7.30;;;3.73;;
1320;SDS011;653;51.480;11.992;2022-09-09T04:33:53;7.40;;;4.03;;
1320;SDS011;653;51.480;11.992;2022-09-09T04:36:19;7.70;;;3.27;;
1320;SDS011;653;51.480;11.992;2022-09-09T04:38:45;5.70;;;3.47;;
1320;SDS011;653;51.480;11.992;2022-09-09T04:41:11;6.97;;;3.57;;
1320;SDS011;653;51.480;11.992;2022-09-09T04:43:39;8.83;;;2.80;;
1320;SDS011;653;51.480;11.992;2022-09-09T04:46:07;7.90;;;3.53;;
1320;SDS011;653;51.480;11.992;2022-09-09T04:48:34;4.53;;;3.47;;
1320;SDS011;653;51.480;11.992;2022-09-09T04:51:02;6.70;;;3.43;;
1320;SDS011;653;51.480;11.992;2022-09-09T04:53:31;4.27;;;2.80;;
1320;SDS011;653;51.480;11.992;2022-09-09T04:56:03;5.50;;;3.20;;
1320;SDS011;653;51.480;11.992;2022-09-09T04:58:40;6.30;;;3.30;;
1320;SDS011;653;51.480;11.992;2022-09-09T05:01:17;3.83;;;3.20;;
1320;SDS011;653;51.480;11.992;2022-09-09T05:03:46;4.30;;;3.90;;
1320;SDS011;653;51.480;11.992;2022-09-09T05:06:12;8.47;;;3.70;;
1320;SDS011;653;51.480;11.992;2022-09-09T05:08:40;6.97;;;3.40;;
1320;SDS011;653;51.480;11.992;2022-09-09T05:11:15;4.60;;;3.70;;
1320;SDS011;653;51.480;11.992;2022-09-09T05:13:46;6.43;;;3.77;;
1320;SDS011;653;51.480;11.992;2022-09-09T05:16:20;4.90;;;3.30;;
1320;SDS011;653;51.480;11.992;2022-09-09T05:18:47;5.43;;;3.53;;
1320;SDS011;653;51.480;11.992;2022-09-09T05:21:16;6.27;;;3.93;;
1320;SDS011;653;51.480;11.992;2022-09-09T05:23:44;8.30;;;3.70;;
1320;SDS011;653;51.480;11.992;2022-09-09T05:26:15;6.30;;;3.50;;
1320;SDS011;653;51.480;11.992;2022-09-09T05:28:43;12.20;;;4.30;;
1320;SDS011;653;51.480;11.992;2022-09-09T05:31:09;6.03;;;3.40;;
1320;SDS011;653;51.480;11.992;2022-09-09T05:33:42;5.47;;;4.00;;
1320;SDS011;653;51.480;11.992;2022-09-09T05:36:12;5.00;;;3.43;;
1320;SDS011;653;51.480;11.992;2022-09-09T05:38:44;6.23;;;3.47;;
1320;SDS011;653;51.480;11.992;2022-09-09T05:41:10;3.60;;;2.90;;
1320;SDS011;653;51.480;11.992;2022-09-09T05:43:37;5.23;;;2.73;;
1320;SDS011;653;51.480;11.992;2022-09-09T05:46:11;8.50;;;3.43;;
1320;SDS011;653;51.480;11.992;2022-09-09T05:48:45;5.80;;;3.83;;
1320;SDS011;653;51.480;11.992;2022-09-09T05:51:14;7.60;;;3.70;;
1320;SDS011;653;51.480;11.992;2022-09-09T05:53:45;6.40;;;4.17;;
1320;SDS011;653;51.480;11.992;2022-09-09T05:56:13;4.87;;;3.80;;
1320;SDS011;653;51.480;11.992;2022-09-09T05:58:47;9.70;;;4.50;;
1320;SDS011;653;51.480;11.992;2022-09-09T06:01:15;5.63;;;3.30;;
1320;SDS011;653;51.480;11.992;2022-09-09T06:03:42;5.50;;;3.20;;
1320;SDS011;653;51.480;11.992;2022-09-09T06:06:11;7.90;;;4.07;;
1320;SDS011;653;51.480;11.992;2022-09-09T06:08:41;5.73;;;4.37;;
1320;SDS011;653;51.480;11.992;2022-09-09T06:11:14;7.77;;;4.53;;
1320;SDS011;653;51.480;11.992;2022-09-09T06:13:45;7.27;;;4.63;;
1320;SDS011;653;51.480;11.992;2022-09-09T06:16:14;6.93;;;3.87;;
1320;SDS011;653;51.480;11.992;2022-09-09T06:18:41;4.30;;;3.10;;
1320;SDS011;653;51.480;11.992;2022-09-09T06:21:12;6.23;;;2.90;;
1320;SDS011;653;51.480;11.992;2022-09-09T06:23:50;9.07;;;3.37;;
1320;SDS011;653;51.480;11.992;2022-09-09T06:26:20;5.00;;;3.03;;
1320;SDS011;653;51.480;11.992;2022-09-09T06:28:48;3.37;;;2.73;;
1320;SDS011;653;51.480;11.992;2022-09-09T06:31:20;9.60;;;2.90;;
1320;SDS011;653;51.480;11.992;2022-09-09T06:33:47;6.83;;;3.93;;
1320;SDS011;653;51.480;11.992;2022-09-09T06:36:24;4.07;;;2.90;;
1320;SDS011;653;51.480;11.992;2022-09-09T06:38:52;4.13;;;2.90;;
1320;SDS011;653;51.480;11.992;2022-09-09T06:41:19;4.37;;;2.97;;
1320;SDS011;653;51.480;11.992;2022-09-09T06:43:47;3.57;;;2.50;;
1320;SDS011;653;51.480;11.992;2022-09-09T06:46:18;4.60;;;2.67;;
1320;SDS011;653;51.480;11.992;2022-09-09T06:48:47;6.80;;;2.70;;
1320;SDS011;653;51.480;11.992;2022-09-09T06:51:23;4.17;;;2.30;;
1320;SDS011;653;51.480;11.992;2022-09-09T06:53:53;5.13;;;2.77;;
1320;SDS011;653;51.480;11.992;2022-09-09T06:56:32;3.43;;;2.17;;
1320;SDS011;653;51.480;11.992;2022-09-09T06:59:06;2.60;;;2.07;;
1320;SDS011;653;51.480;11.992;2022-09-09T07:01:50;4.27;;;2.10;;
1320;SDS011;653;51.480;11.992;2022-09-09T07:04:18;3.80;;;2.20;;
1320;SDS011;653;51.480;11.992;2022-09-09T07:06:44;4.60;;;2.87;;
1320;SDS011;653;51.480;11.992;2022-09-09T07:09:11;5.10;;;2.57;;
1320;SDS011;653;51.480;11.992;2022-09-09T07:11:46;6.50;;;2.13;;
1320;SDS011;653;51.480;11.992;2022-09-09T07:14:14;3.07;;;2.70;;
1320;SDS011;653;51.480;11.992;2022-09-09T07:16:40;5.67;;;2.27;;
1320;SDS011;653;51.480;11.992;2022-09-09T07:19:08;2.60;;;1.97;;
1320;SDS011;653;51.480;11.992;2022-09-09T07:21:35;4.23;;;2.33;;
1320;SDS011;653;51.480;11.992;2022-09-09T07:24:01;5.07;;;2.77;;
1320;SDS011;653;51.480;11.992;2022-09-09T07:26:28;4.00;;;2.37;;
1320;SDS011;653;51.480;11.992;2022-09-09T07:28:56;3.30;;;2.13;;
1320;SDS011;653;51.480;11.992;2022-09-09T07:31:30;9.30;;;2.20;;
1320;SDS011;653;51.480;11.992;2022-09-09T07:33:57;4.33;;;2.17;;
1320;SDS011;653;51.480;11.992;2022-09-09T07:36:29;3.13;;;2.03;;
1320;SDS011;653;51.480;11.992;2022-09-09T07:38:58;2.97;;;1.83;;
1320;SDS011;653;51.480;11.992;2022-09-09T07:41:32;3.43;;;2.10;;
1320;SDS011;653;51.480;11.992;2022-09-09T07:44:04;6.67;;;1.97;;
1320;SDS011;653;51.480;11.992;2022-09-09T07:46:33;2.80;;;2.03;;
1320;SDS011;653;51.480;11.992;2022-09-09T07:49:00;3.80;;;1.90;;
1320;SDS011;653;51.480;11.992;2022-09-09T07:51:36;4.57;;;2.17;;
1320;SDS011;653;51.480;11.992;2022-09-09T07:54:06;5.00;;;1.90;;
1320;SDS011;653;51.480;11.992;2022-09-09T07:56:35;3.33;;;1.60;;
1320;SDS011;653;51.480;11.992;2022-09-09T07:59:03;4.27;;;1.90;;
1320;SDS011;653;51.480;11.992;2022-09-09T08:01:36;3.53;;;1.70;;
1320;SDS011;653;51.480;11.992;2022-09-09T08:04:16;4.47;;;2.27;;
1320;SDS011;653;51.480;11.992;2022-09-09T08:06:48;4.40;;;1.60;;
1320;SDS011;653;51.480;11.992;2022-09-09T08:09:24;2.40;;;2.00;;
1320;SDS011;653;51.480;11.992;2022-09-09T08:11:53;5.47;;;1.87;;
1320;SDS011;653;51.480;11.992;2022-09-09T08:14:39;3.10;;;2.00;;
1320;SDS011;653;51.480;11.992;2022-09-09T08:17:07;4.43;;;2.23;;
1320;SDS011;653;51.480;11.992;2022-09-09T08:19:32;3.50;;;2.20;;
1320;SDS011;653;51.480;11.992;2022-09-09T08:22:02;4.30;;;1.83;;
1320;SDS011;653;51.480;11.992;2022-09-09T08:24:28;4.13;;;1.70;;
1320;SDS011;653;51.480;11.992;2022-09-09T08:26:54;3.87;;;1.67;;
1320;SDS011;653;51.480;11.992;2022-09-09T08:29:21;7.00;;;1.90;;
1320;SDS011;653;51.480;11.992;2022-09-09T08:31:51;2.73;;;1.50;;
1320;SDS011;653;51.480;11.992;2022-09-09T08:34:21;2.90;;;1.90;;
1320;SDS011;653;51.480;11.992;2022-09-09T08:36:48;4.90;;;2.13;;
1320;SDS011;653;51.480;11.992;2022-09-09T08:39:15;7.10;;;2.23;;
1320;SDS011;653;51.480;11.992;2022-09-09T08:50:41;1.97;;;1.30;;
1320;SDS011;653;51.480;11.992;2022-09-09T08:53:16;6.13;;;1.80;;
1320;SDS011;653;51.480;11.992;2022-09-09T08:58:28;5.13;;;1.80;;
1320;SDS011;653;51.480;11.992;2022-09-09T09:01:20;4.37;;;2.27;;
1320;SDS011;653;51.480;11.992;2022-09-09T09:07:51;2.80;;;1.90;;
1320;SDS011;653;51.480;11.992;2022-09-09T09:10:47;5.13;;;2.17;;
1320;SDS011;653;51.480;11.992;2022-09-09T09:13:19;3.43;;;1.87;;
1320;SDS011;653;51.480;11.992;2022-09-09T09:15:56;3.83;;;2.10;;
1320;SDS011;653;51.480;11.992;2022-09-09T09:18:25;3.30;;;2.10;;
1320;SDS011;653;51.480;11.992;2022-09-09T09:21:00;5.60;;;2.13;;
1320;SDS011;653;51.480;11.992;2022-09-09T09:23:35;2.33;;;1.73;;
1320;SDS011;653;51.480;11.992;2022-09-09T09:26:25;2.00;;;1.80;;
1320;SDS011;653;51.480;11.992;2022-09-09T09:28:56;4.30;;;2.10;;
1320;SDS011;653;51.480;11.992;2022-09-09T09:31:25;3.23;;;2.17;;
1320;SDS011;653;51.480;11.992;2022-09-09T09:33:54;9.53;;;2.00;;
1320;SDS011;653;51.480;11.992;2022-09-09T09:36:25;5.77;;;2.40;;
1320;SDS011;653;51.480;11.992;2022-09-09T09:39:01;3.53;;;2.20;;
1320;SDS011;653;51.480;11.992;2022-09-09T09:41:29;6.03;;;2.00;;
1320;SDS011;653;51.480;11.992;2022-09-09T09:43:55;2.97;;;1.70;;
1320;SDS011;653;51.480;11.992;2022-09-09T09:46:21;4.30;;;2.20;;
1320;SDS011;653;51.480;11.992;2022-09-09T09:49:03;2.10;;;1.90;;
1320;SDS011;653;51.480;11.992;2022-09-09T09:51:32;3.60;;;2.20;;
1320;SDS011;653;51.480;11.992;2022-09-09T09:56:53;5.40;;;2.67;;
1320;SDS011;653;51.480;11.992;2022-09-09T10:02:05;4.27;;;2.37;;
1320;SDS011;653;51.480;11.992;2022-09-09T10:04:37;4.07;;;2.80;;
1320;SDS011;653;51.480;11.992;2022-09-09T10:07:11;5.03;;;2.53;;
1320;SDS011;653;51.480;11.992;2022-09-09T10:09:39;2.43;;;2.20;;
1320;SDS011;653;51.480;11.992;2022-09-09T10:21:33;3.73;;;2.07;;
1320;SDS011;653;51.480;11.992;2022-09-09T10:24:20;4.40;;;2.17;;
1320;SDS011;653;51.480;11.992;2022-09-09T10:30:19;4.23;;;2.43;;
1320;SDS011;653;51.480;11.992;2022-09-09T10:38:46;2.90;;;2.17;;
1320;SDS011;653;51.480;11.992;2022-09-09T10:41:26;4.23;;;2.30;;
1320;SDS011;653;51.480;11.992;2022-09-09T10:52:59;4.60;;;2.37;;
1320;SDS011;653;51.480;11.992;2022-09-09T10:55:51;6.23;;;2.47;;
1320;SDS011;653;51.480;11.992;2022-09-09T10:58:24;5.30;;;3.10;;
1320;SDS011;653;51.480;11.992;2022-09-09T11:01:01;5.83;;;2.60;;
1320;SDS011;653;51.480;11.992;2022-09-09T11:04:08;3.43;;;2.40;;
1320;SDS011;653;51.480;11.992;2022-09-09T11:06:53;3.83;;;1.80;;
1320;SDS011;653;51.480;11.992;2022-09-09T11:09:22;2.73;;;1.77;;
1320;SDS011;653;51.480;11.992;2022-09-09T11:12:00;4.27;;;1.87;;
1320;SDS011;653;51.480;11.992;2022-09-09T11:14:45;7.80;;;2.40;;
1320;SDS011;653;51.480;11.992;2022-09-09T11:17:18;4.23;;;2.33;;
1320;SDS011;653;51.480;11.992;2022-09-09T11:19:51;6.57;;;2.40;;
1320;SDS011;653;51.480;11.992;2022-09-09T11:22:21;4.90;;;2.20;;
1320;SDS011;653;51.480;11.992;2022-09-09T11:24:55;5.97;;;2.33;;
1320;SDS011;653;51.480;11.992;2022-09-09T11:30:19;2.13;;;1.53;;
1320;SDS011;653;51.480;11.992;2022-09-09T11:38:52;2.60;;;1.60;;
1320;SDS011;653;51.480;11.992;2022-09-09T11:41:21;5.30;;;2.33;;
1320;SDS011;653;51.480;11.992;2022-09-09T11:43:48;3.07;;;2.10;;
1320;SDS011;653;51.480;11.992;2022-09-09T11:46:20;3.13;;;2.10;;
1320;SDS011;653;51.480;11.992;2022-09-09T11:49:02;3.80;;;2.07;;
1320;SDS011;653;51.480;11.992;2022-09-09T11:55:09;3.97;;;2.13;;
1320;SDS011;653;51.480;11.992;2022-09-09T11:58:05;2.73;;;2.00;;
1320;SDS011;653;51.480;11.992;2022-09-09T12:00:40;4.13;;;2.53;;
1320;SDS011;653;51.480;11.992;2022-09-09T12:06:46;4.70;;;2.33;;
1320;SDS011;653;51.480;11.992;2022-09-09T12:08:58;2.43;;;1.90;;
1320;SDS011;653;51.480;11.992;2022-09-09T12:12:06;2.80;;;2.30;;
1320;SDS011;653;51.480;11.992;2022-09-09T12:17:25;4.07;;;2.20;;
1320;SDS011;653;51.480;11.992;2022-09-09T12:20:03;7.50;;;2.80;;
1320;SDS011;653;51.480;11.992;2022-09-09T12:22:42;4.80;;;2.53;;
1320;SDS011;653;51.480;11.992;2022-09-09T12:28:15;4.20;;;2.40;;
1320;SDS011;653;51.480;11.992;2022-09-09T12:33:51;5.80;;;2.60;;
1320;SDS011;653;51.480;11.992;2022-09-09T12:36:28;5.93;;;2.40;;
1320;SDS011;653;51.480;11.992;2022-09-09T12:38:55;3.03;;;2.43;;
1320;SDS011;653;51.480;11.992;2022-09-09T12:41:26;3.30;;;2.43;;
1320;SDS011;653;51.480;11.992;2022-09-09T12:44:05;3.90;;;2.43;;
1320;SDS011;653;51.480;11.992;2022-09-09T12:46:36;5.53;;;2.33;;
1320;SDS011;653;51.480;11.992;2022-09-09T12:49:29;3.83;;;1.90;;
1320;SDS011;653;51.480;11.992;2022-09-09T12:55:01;4.77;;;2.40;;
1320;SDS011;653;51.480;11.992;2022-09-09T12:57:32;3.53;;;2.27;;
1320;SDS011;653;51.480;11.992;2022-09-09T13:00:05;3.60;;;2.40;;
1320;SDS011;653;51.480;11.992;2022-09-09T13:02:45;2.70;;;2.50;;
1320;SDS011;653;51.480;11.992;2022-09-09T13:05:37;5.33;;;2.70;;
1320;SDS011;653;51.480;11.992;2022-09-09T13:08:14;2.93;;;2.37;;
1320;SDS011;653;51.480;11.992;2022-09-09T13:10:54;2.97;;;2.53;;
1320;SDS011;653;51.480;11.992;2022-09-09T13:13:37;3.97;;;3.10;;
1320;SDS011;653;51.480;11.992;2022-09-09T13:16:05;5.20;;;2.20;;
1320;SDS011;653;51.480;11.992;2022-09-09T13:18:35;4.60;;;2.37;;
1320;SDS011;653;51.480;11.992;2022-09-09T13:21:04;4.00;;;2.50;;
1320;SDS011;653;51.480;11.992;2022-09-09T13:23:30;2.60;;;2.40;;
1320;SDS011;653;51.480;11.992;2022-09-09T13:26:05;4.30;;;2.80;;
1320;SDS011;653;51.480;11.992;2022-09-09T13:28:33;3.23;;;2.10;;
1320;SDS011;653;51.480;11.992;2022-09-09T13:31:02;2.70;;;2.20;;
1320;SDS011;653;51.480;11.992;2022-09-09T13:33:33;3.00;;;2.40;;
1320;SDS011;653;51.480;11.992;2022-09-09T13:36:09;4.97;;;2.27;;
1320;SDS011;653;51.480;11.992;2022-09-09T13:38:58;3.07;;;2.40;;
1320;SDS011;653;51.480;11.992;2022-09-09T13:41:29;3.07;;;2.40;;
1320;SDS011;653;51.480;11.992;2022-09-09T13:44:00;3.00;;;2.80;;
1320;SDS011;653;51.480;11.992;2022-09-09T13:46:39;2.80;;;2.30;;
1320;SDS011;653;51.480;11.992;2022-09-09T13:51:35;2.73;;;2.23;;
1320;SDS011;653;51.480;11.992;2022-09-09T13:54:03;3.33;;;2.00;;
1320;SDS011;653;51.480;11.992;2022-09-09T13:56:37;2.40;;;2.20;;
1320;SDS011;653;51.480;11.992;2022-09-09T13:59:04;3.57;;;2.20;;
1320;SDS011;653;51.480;11.992;2022-09-09T14:01:31;2.70;;;2.50;;
1320;SDS011;653;51.480;11.992;2022-09-09T14:04:00;3.40;;;2.20;;
1320;SDS011;653;51.480;11.992;2022-09-09T14:06:26;3.03;;;2.73;;
1320;SDS011;653;51.480;11.992;2022-09-09T14:08:52;4.73;;;2.87;;
1320;SDS011;653;51.480;11.992;2022-09-09T14:11:21;4.20;;;2.40;;
1320;SDS011;653;51.480;11.992;2022-09-09T14:13:47;5.07;;;2.97;;
1320;SDS011;653;51.480;11.992;2022-09-09T14:16:16;2.60;;;2.40;;
1320;SDS011;653;51.480;11.992;2022-09-09T14:18:44;3.70;;;2.60;;
1320;SDS011;653;51.480;11.992;2022-09-09T14:21:12;2.80;;;2.60;;
1320;SDS011;653;51.480;11.992;2022-09-09T14:23:37;2.57;;;2.30;;
1320;SDS011;653;51.480;11.992;2022-09-09T14:26:04;2.40;;;2.20;;
1320;SDS011;653;51.480;11.992;2022-09-09T14:28:32;3.20;;;2.87;;
1320;SDS011;653;51.480;11.992;2022-09-09T14:31:02;2.90;;;2.60;;
1320;SDS011;653;51.480;11.992;2022-09-09T14:33:29;2.93;;;2.73;;
1320;SDS011;653;51.480;11.992;2022-09-09T14:35:58;2.53;;;2.33;;
1320;SDS011;653;51.480;11.992;2022-09-09T14:38:30;3.40;;;2.63;;
1320;SDS011;653;51.480;11.992;2022-09-09T14:41:12;7.23;;;2.47;;
1320;SDS011;653;51.480;11.992;2022-09-09T14:43:43;3.70;;;2.60;;
1320;SDS011;653;51.480;11.992;2022-09-09T14:46:11;2.90;;;2.43;;
1320;SDS011;653;51.480;11.992;2022-09-09T14:48:39;3.97;;;2.40;;
1320;SDS011;653;51.480;11.992;2022-09-09T14:51:12;3.30;;;2.85;;
1320;SDS011;653;51.480;11.992;2022-09-09T14:53:46;2.30;;;2.10;;
1320;SDS011;653;51.480;11.992;2022-09-09T14:56:13;3.33;;;2.13;;
1320;SDS011;653;51.480;11.992;2022-09-09T14:58:40;2.80;;;1.77;;
1320;SDS011;653;51.480;11.992;2022-09-09T15:01:08;2.63;;;1.80;;
1320;SDS011;653;51.480;11.992;2022-09-09T15:03:39;2.53;;;2.30;;
1320;SDS011;653;51.480;11.992;2022-09-09T15:06:11;2.50;;;2.30;;
1320;SDS011;653;51.480;11.992;2022-09-09T15:08:38;2.60;;;2.10;;
1320;SDS011;653;51.480;11.992;2022-09-09T15:11:08;2.73;;;2.50;;
1320;SDS011;653;51.480;11.992;2022-09-09T15:13:34;2.40;;;2.20;;
1320;SDS011;653;51.480;11.992;2022-09-09T15:16:06;2.40;;;2.20;;
1320;SDS011;653;51.480;11.992;2022-09-09T15:18:35;2.40;;;2.20;;
1320;SDS011;653;51.480;11.992;2022-09-09T15:21:10;2.23;;;2.03;;
1320;SDS011;653;51.480;11.992;2022-09-09T15:23:37;2.23;;;2.10;;
1320;SDS011;653;51.480;11.992;2022-09-09T15:26:04;2.87;;;2.00;;
1320;SDS011;653;51.480;11.992;2022-09-09T15:28:35;2.40;;;2.30;;
1320;SDS011;653;51.480;11.992;2022-09-09T15:31:09;2.38;;;2.10;;
1320;SDS011;653;51.480;11.992;2022-09-09T15:33:38;3.23;;;2.93;;
1320;SDS011;653;51.480;11.992;2022-09-09T15:38:55;2.60;;;2.40;;
1320;SDS011;653;51.480;11.992;2022-09-09T15:41:23;5.23;;;2.83;;
1320;SDS011;653;51.480;11.992;2022-09-09T15:43:50;2.57;;;2.37;;
1320;SDS011;653;51.480;11.992;2022-09-09T15:48:43;2.50;;;2.30;;
1320;SDS011;653;51.480;11.992;2022-09-09T15:51:10;2.83;;;2.58;;
1320;SDS011;653;51.480;11.992;2022-09-09T15:53:36;2.95;;;2.38;;
1320;SDS011;653;51.480;11.992;2022-09-09T15:56:04;2.93;;;2.60;;
1320;SDS011;653;51.480;11.992;2022-09-09T15:58:33;3.27;;;2.97;;
1320;SDS011;653;51.480;11.992;2022-09-09T16:01:09;2.95;;;2.75;;
1320;SDS011;653;51.480;11.992;2022-09-09T16:03:36;2.58;;;2.30;;
1320;SDS011;653;51.480;11.992;2022-09-09T16:06:04;3.27;;;2.70;;
1320;SDS011;653;51.480;11.992;2022-09-09T16:08:49;2.50;;;2.30;;
1320;SDS011;653;51.480;11.992;2022-09-09T16:11:18;3.50;;;2.40;;
1320;SDS011;653;51.480;11.992;2022-09-09T16:13:48;3.40;;;2.60;;
1320;SDS011;653;51.480;11.992;2022-09-09T16:16:14;3.20;;;2.90;;
1320;SDS011;653;51.480;11.992;2022-09-09T16:18:42;3.00;;;2.30;;
1320;SDS011;653;51.480;11.992;2022-09-09T16:21:18;2.33;;;2.13;;
1320;SDS011;653;51.480;11.992;2022-09-09T16:24:06;3.83;;;2.33;;
1320;SDS011;653;51.480;11.992;2022-09-09T16:26:35;4.13;;;2.60;;
1320;SDS011;653;51.480;11.992;2022-09-09T16:29:02;2.70;;;2.50;;
1320;SDS011;653;51.480;11.992;2022-09-09T16:31:30;3.80;;;2.53;;
1320;SDS011;653;51.480;11.992;2022-09-09T16:33:56;3.90;;;2.40;;
1320;SDS011;653;51.480;11.992;2022-09-09T16:36:25;3.43;;;2.50;;
1320;SDS011;653;51.480;11.992;2022-09-09T16:38:54;2.73;;;2.00;;
1320;SDS011;653;51.480;11.992;2022-09-09T16:41:20;2.40;;;1.97;;
1320;SDS011;653;51.480;11.992;2022-09-09T16:43:46;2.20;;;1.90;;
1320;SDS011;653;51.480;11.992;2022-09-09T16:46:16;2.70;;;2.50;;
1320;SDS011;653;51.480;11.992;2022-09-09T16:48:46;3.27;;;2.13;;
1320;SDS011;653;51.480;11.992;2022-09-09T16:51:31;4.40;;;2.53;;
1320;SDS011;653;51.480;11.992;2022-09-09T16:54:01;5.60;;;2.73;;
1320;SDS011;653;51.480;11.992;2022-09-09T16:56:29;2.13;;;1.90;;
1320;SDS011;653;51.480;11.992;2022-09-09T16:59:00;4.10;;;2.70;;
1320;SDS011;653;51.480;11.992;2022-09-09T17:01:27;3.50;;;2.50;;
1320;SDS011;653;51.480;11.992;2022-09-09T17:04:02;3.90;;;2.33;;
1320;SDS011;653;51.480;11.992;2022-09-09T17:06:31;2.83;;;2.30;;
1320;SDS011;653;51.480;11.992;2022-09-09T17:09:05;2.50;;;2.30;;
1320;SDS011;653;51.480;11.992;2022-09-09T17:11:35;3.00;;;2.50;;
1320;SDS011;653;51.480;11.992;2022-09-09T17:14:01;3.50;;;2.57;;
1320;SDS011;653;51.480;11.992;2022-09-09T17:16:28;2.57;;;2.00;;
1320;SDS011;653;51.480;11.992;2022-09-09T17:18:55;4.57;;;2.33;;
1320;SDS011;653;51.480;11.992;2022-09-09T17:21:22;2.83;;;2.30;;
1320;SDS011;653;51.480;11.992;2022-09-09T17:23:50;3.83;;;2.40;;
1320;SDS011;653;51.480;11.992;2022-09-09T17:26:16;3.47;;;2.07;;
1320;SDS011;653;51.480;11.992;2022-09-09T17:28:43;3.90;;;2.23;;
1320;SDS011;653;51.480;11.992;2022-09-09T17:31:10;3.20;;;2.23;;
1320;SDS011;653;51.480;11.992;2022-09-09T17:33:38;2.50;;;2.30;;
1320;SDS011;653;51.480;11.992;2022-09-09T17:36:15;2.33;;;1.90;;
1320;SDS011;653;51.480;11.992;2022-09-09T17:38:42;4.20;;;1.80;;
1320;SDS011;653;51.480;11.992;2022-09-09T17:41:15;3.67;;;2.33;;
1320;SDS011;653;51.480;11.992;2022-09-09T17:43:43;3.70;;;2.10;;